sensor_id;sensor_type;location;lat;lon;timestamp;P1;durP1;ratioP1;P2;durP2;ratioP2
3523;SDS011;1776;53.330;11.498;2022-12-18T00:01:58;42.37;;;15.47;;
3523;SDS011;1776;53.330;11.498;2022-12-18T00:04:24;39.83;;;15.63;;
3523;SDS011;1776;53.330;11.498;2022-12-18T00:06:50;37.85;;;15.90;;
3523;SDS011;1776;53.330;11.498;2022-12-18T00:09:16;30.80;;;13.40;;
3523;SDS011;1776;53.330;11.498;2022-12-18T00:11:41;37.53;;;15.37;;
3523;SDS011;1776;53.330;11.498;2022-12-18T00:14:07;34.63;;;15.60;;
3523;SDS011;1776;53.330;11.498;2022-12-18T00:16:33;34.45;;;15.00;;
3523;SDS011;1776;53.330;11.498;2022-12-18T00:19:00;36.30;;;14.57;;
3523;SDS011;1776;53.330;11.498;2022-12-18T00:21:26;35.80;;;15.87;;
3523;SDS011;1776;53.330;11.498;2022-12-18T00:23:53;46.33;;;16.02;;
3523;SDS011;1776;53.330;11.498;2022-12-18T00:26:23;39.60;;;16.50;;
3523;SDS011;1776;53.330;11.498;2022-12-18T00:28:50;38.60;;;14.88;;
3523;SDS011;1776;53.330;11.498;2022-12-18T00:31:18;33.55;;;15.52;;
3523;SDS011;1776;53.330;11.498;2022-12-18T00:33:45;41.83;;;16.33;;
3523;SDS011;1776;53.330;11.498;2022-12-18T00:36:12;30.33;;;13.83;;
3523;SDS011;1776;53.330;11.498;2022-12-18T00:38:39;42.08;;;15.05;;
3523;SDS011;1776;53.330;11.498;2022-12-18T00:41:05;24.10;;;12.20;;
3523;SDS011;1776;53.330;11.498;2022-12-18T00:43:33;35.88;;;14.60;;
3523;SDS011;1776;53.330;11.498;2022-12-18T00:45:58;32.47;;;13.55;;
3523;SDS011;1776;53.330;11.498;2022-12-18T00:48:23;33.07;;;13.47;;
3523;SDS011;1776;53.330;11.498;2022-12-18T00:50:49;41.00;;;16.00;;
3523;SDS011;1776;53.330;11.498;2022-12-18T00:53:15;36.20;;;13.18;;
3523;SDS011;1776;53.330;11.498;2022-12-18T00:55:41;28.77;;;13.73;;
3523;SDS011;1776;53.330;11.498;2022-12-18T00:58:07;35.70;;;13.80;;
3523;SDS011;1776;53.330;11.498;2022-12-18T01:00:34;34.05;;;13.13;;
3523;SDS011;1776;53.330;11.498;2022-12-18T01:02:59;37.20;;;14.67;;
3523;SDS011;1776;53.330;11.498;2022-12-18T01:05:25;35.47;;;13.40;;
3523;SDS011;1776;53.330;11.498;2022-12-18T01:07:50;26.53;;;12.20;;
3523;SDS011;1776;53.330;11.498;2022-12-18T01:10:15;29.33;;;12.50;;
3523;SDS011;1776;53.330;11.498;2022-12-18T01:12:41;33.93;;;14.33;;
3523;SDS011;1776;53.330;11.498;2022-12-18T01:15:07;30.57;;;14.07;;
3523;SDS011;1776;53.330;11.498;2022-12-18T01:17:34;30.60;;;13.32;;
3523;SDS011;1776;53.330;11.498;2022-12-18T01:19:59;29.03;;;12.53;;
3523;SDS011;1776;53.330;11.498;2022-12-18T01:22:25;30.70;;;13.67;;
3523;SDS011;1776;53.330;11.498;2022-12-18T01:24:50;28.17;;;12.40;;
3523;SDS011;1776;53.330;11.498;2022-12-18T01:27:15;31.93;;;11.97;;
3523;SDS011;1776;53.330;11.498;2022-12-18T01:29:40;36.63;;;14.03;;
3523;SDS011;1776;53.330;11.498;2022-12-18T01:32:06;45.20;;;16.30;;
3523;SDS011;1776;53.330;11.498;2022-12-18T01:34:31;30.23;;;12.97;;
3523;SDS011;1776;53.330;11.498;2022-12-18T01:36:56;36.57;;;14.00;;
3523;SDS011;1776;53.330;11.498;2022-12-18T01:39:22;28.53;;;11.60;;
3523;SDS011;1776;53.330;11.498;2022-12-18T01:41:47;29.43;;;12.57;;
3523;SDS011;1776;53.330;11.498;2022-12-18T01:47:28;33.03;;;12.93;;
3523;SDS011;1776;53.330;11.498;2022-12-18T01:49:54;38.42;;;13.80;;
3523;SDS011;1776;53.330;11.498;2022-12-18T01:52:21;32.70;;;13.43;;
3523;SDS011;1776;53.330;11.498;2022-12-18T01:54:49;31.05;;;13.13;;
3523;SDS011;1776;53.330;11.498;2022-12-18T01:57:16;34.30;;;12.80;;
3523;SDS011;1776;53.330;11.498;2022-12-18T01:59:42;31.17;;;12.60;;
3523;SDS011;1776;53.330;11.498;2022-12-18T02:02:07;31.37;;;13.10;;
3523;SDS011;1776;53.330;11.498;2022-12-18T02:04:33;30.47;;;14.00;;
3523;SDS011;1776;53.330;11.498;2022-12-18T02:12:19;27.48;;;13.05;;
3523;SDS011;1776;53.330;11.498;2022-12-18T02:15:00;29.77;;;12.07;;
3523;SDS011;1776;53.330;11.498;2022-12-18T02:28:06;31.42;;;11.90;;
3523;SDS011;1776;53.330;11.498;2022-12-18T02:30:36;28.15;;;12.07;;
3523;SDS011;1776;53.330;11.498;2022-12-18T02:33:04;30.00;;;13.88;;
3523;SDS011;1776;53.330;11.498;2022-12-18T02:35:32;26.33;;;10.90;;
3523;SDS011;1776;53.330;11.498;2022-12-18T02:37:59;27.60;;;12.02;;
3523;SDS011;1776;53.330;11.498;2022-12-18T02:40:26;32.78;;;12.80;;
3523;SDS011;1776;53.330;11.498;2022-12-18T02:42:52;26.50;;;11.50;;
3523;SDS011;1776;53.330;11.498;2022-12-18T02:45:17;33.87;;;12.57;;
3523;SDS011;1776;53.330;11.498;2022-12-18T02:47:43;28.50;;;12.37;;
3523;SDS011;1776;53.330;11.498;2022-12-18T02:55:28;28.65;;;11.95;;
3523;SDS011;1776;53.330;11.498;2022-12-18T02:58:14;29.40;;;12.57;;
3523;SDS011;1776;53.330;11.498;2022-12-18T03:00:41;25.48;;;11.48;;
3523;SDS011;1776;53.330;11.498;2022-12-18T03:03:19;35.22;;;12.93;;
3523;SDS011;1776;53.330;11.498;2022-12-18T03:08:33;32.53;;;13.57;;
3523;SDS011;1776;53.330;11.498;2022-12-18T03:11:10;28.05;;;12.50;;
3523;SDS011;1776;53.330;11.498;2022-12-18T03:13:48;37.22;;;13.32;;
3523;SDS011;1776;53.330;11.498;2022-12-18T03:16:22;28.65;;;11.63;;
3523;SDS011;1776;53.330;11.498;2022-12-18T03:18:55;31.20;;;11.90;;
3523;SDS011;1776;53.330;11.498;2022-12-18T03:21:31;30.33;;;12.10;;
3523;SDS011;1776;53.330;11.498;2022-12-18T03:24:00;31.38;;;11.52;;
3523;SDS011;1776;53.330;11.498;2022-12-18T03:26:28;30.98;;;12.55;;
3523;SDS011;1776;53.330;11.498;2022-12-18T03:28:56;30.60;;;12.32;;
3523;SDS011;1776;53.330;11.498;2022-12-18T03:31:28;35.65;;;13.13;;
3523;SDS011;1776;53.330;11.498;2022-12-18T03:33:57;31.33;;;13.50;;
3523;SDS011;1776;53.330;11.498;2022-12-18T03:36:26;31.90;;;10.90;;
3523;SDS011;1776;53.330;11.498;2022-12-18T03:38:51;26.13;;;12.20;;
3523;SDS011;1776;53.330;11.498;2022-12-18T03:44:09;20.90;;;9.45;;
3523;SDS011;1776;53.330;11.498;2022-12-18T03:52:15;26.40;;;10.55;;
3523;SDS011;1776;53.330;11.498;2022-12-18T03:54:45;25.42;;;10.27;;
3523;SDS011;1776;53.330;11.498;2022-12-18T03:57:18;31.50;;;11.73;;
3523;SDS011;1776;53.330;11.498;2022-12-18T03:59:48;24.92;;;10.32;;
3523;SDS011;1776;53.330;11.498;2022-12-18T04:02:16;35.15;;;10.95;;
3523;SDS011;1776;53.330;11.498;2022-12-18T04:04:43;30.00;;;10.68;;
3523;SDS011;1776;53.330;11.498;2022-12-18T04:07:11;22.35;;;10.00;;
3523;SDS011;1776;53.330;11.498;2022-12-18T04:09:38;22.98;;;10.68;;
3523;SDS011;1776;53.330;11.498;2022-12-18T04:12:06;32.75;;;11.65;;
3523;SDS011;1776;53.330;11.498;2022-12-18T04:14:31;27.30;;;11.20;;
3523;SDS011;1776;53.330;11.498;2022-12-18T04:17:00;19.52;;;9.80;;
3523;SDS011;1776;53.330;11.498;2022-12-18T04:19:26;27.70;;;11.93;;
3523;SDS011;1776;53.330;11.498;2022-12-18T04:21:51;25.13;;;10.77;;
3523;SDS011;1776;53.330;11.498;2022-12-18T04:24:16;22.60;;;10.53;;
3523;SDS011;1776;53.330;11.498;2022-12-18T04:26:42;24.20;;;10.77;;
3523;SDS011;1776;53.330;11.498;2022-12-18T04:29:07;21.33;;;9.83;;
3523;SDS011;1776;53.330;11.498;2022-12-18T04:31:32;19.03;;;8.60;;
3523;SDS011;1776;53.330;11.498;2022-12-18T04:33:58;26.97;;;12.40;;
3523;SDS011;1776;53.330;11.498;2022-12-18T04:36:26;29.97;;;11.30;;
3523;SDS011;1776;53.330;11.498;2022-12-18T04:38:51;24.30;;;10.88;;
3523;SDS011;1776;53.330;11.498;2022-12-18T04:41:16;29.30;;;12.07;;
3523;SDS011;1776;53.330;11.498;2022-12-18T04:43:41;29.90;;;10.90;;
3523;SDS011;1776;53.330;11.498;2022-12-18T04:46:07;28.57;;;11.50;;
3523;SDS011;1776;53.330;11.498;2022-12-18T04:48:33;32.13;;;12.80;;
3523;SDS011;1776;53.330;11.498;2022-12-18T04:50:59;29.77;;;11.07;;
3523;SDS011;1776;53.330;11.498;2022-12-18T04:53:24;28.97;;;10.80;;
3523;SDS011;1776;53.330;11.498;2022-12-18T04:55:49;34.33;;;15.50;;
3523;SDS011;1776;53.330;11.498;2022-12-18T04:58:15;32.30;;;13.17;;
3523;SDS011;1776;53.330;11.498;2022-12-18T05:00:40;33.53;;;12.73;;
3523;SDS011;1776;53.330;11.498;2022-12-18T05:03:06;36.13;;;13.10;;
3523;SDS011;1776;53.330;11.498;2022-12-18T05:05:31;36.27;;;14.07;;
3523;SDS011;1776;53.330;11.498;2022-12-18T05:07:56;34.10;;;12.60;;
3523;SDS011;1776;53.330;11.498;2022-12-18T05:10:22;25.90;;;11.80;;
3523;SDS011;1776;53.330;11.498;2022-12-18T05:12:47;23.50;;;11.13;;
3523;SDS011;1776;53.330;11.498;2022-12-18T05:15:30;32.80;;;11.35;;
3523;SDS011;1776;53.330;11.498;2022-12-18T05:17:57;28.25;;;11.90;;
3523;SDS011;1776;53.330;11.498;2022-12-18T05:20:23;29.38;;;12.95;;
3523;SDS011;1776;53.330;11.498;2022-12-18T05:22:49;23.73;;;10.47;;
3523;SDS011;1776;53.330;11.498;2022-12-18T05:25:15;29.67;;;11.60;;
3523;SDS011;1776;53.330;11.498;2022-12-18T05:27:40;25.73;;;11.43;;
3523;SDS011;1776;53.330;11.498;2022-12-18T05:30:06;33.73;;;13.47;;
3523;SDS011;1776;53.330;11.498;2022-12-18T05:32:32;28.08;;;11.80;;
3523;SDS011;1776;53.330;11.498;2022-12-18T05:34:57;28.73;;;11.20;;
3523;SDS011;1776;53.330;11.498;2022-12-18T05:37:22;39.10;;;13.60;;
3523;SDS011;1776;53.330;11.498;2022-12-18T05:39:48;30.40;;;12.20;;
3523;SDS011;1776;53.330;11.498;2022-12-18T05:42:13;32.77;;;12.37;;
3523;SDS011;1776;53.330;11.498;2022-12-18T05:44:38;29.53;;;13.00;;
3523;SDS011;1776;53.330;11.498;2022-12-18T05:47:03;26.97;;;10.00;;
3523;SDS011;1776;53.330;11.498;2022-12-18T05:49:29;34.97;;;12.03;;
3523;SDS011;1776;53.330;11.498;2022-12-18T05:51:54;27.93;;;11.70;;
3523;SDS011;1776;53.330;11.498;2022-12-18T05:54:19;29.70;;;12.50;;
3523;SDS011;1776;53.330;11.498;2022-12-18T05:56:45;25.50;;;11.63;;
3523;SDS011;1776;53.330;11.498;2022-12-18T05:59:10;28.13;;;12.33;;
3523;SDS011;1776;53.330;11.498;2022-12-18T06:01:35;32.30;;;11.13;;
3523;SDS011;1776;53.330;11.498;2022-12-18T06:04:00;33.50;;;12.30;;
3523;SDS011;1776;53.330;11.498;2022-12-18T06:06:26;35.80;;;15.23;;
3523;SDS011;1776;53.330;11.498;2022-12-18T06:08:53;27.45;;;10.95;;
3523;SDS011;1776;53.330;11.498;2022-12-18T06:11:19;27.98;;;12.75;;
3523;SDS011;1776;53.330;11.498;2022-12-18T06:13:46;32.00;;;13.68;;
3523;SDS011;1776;53.330;11.498;2022-12-18T06:16:23;29.55;;;14.43;;
3523;SDS011;1776;53.330;11.498;2022-12-18T06:18:48;38.53;;;12.90;;
3523;SDS011;1776;53.330;11.498;2022-12-18T06:21:13;27.97;;;12.70;;
3523;SDS011;1776;53.330;11.498;2022-12-18T06:23:39;37.27;;;12.83;;
3523;SDS011;1776;53.330;11.498;2022-12-18T06:26:13;32.57;;;12.67;;
3523;SDS011;1776;53.330;11.498;2022-12-18T06:28:38;28.50;;;12.27;;
3523;SDS011;1776;53.330;11.498;2022-12-18T06:31:04;30.77;;;11.40;;
3523;SDS011;1776;53.330;11.498;2022-12-18T06:33:30;31.55;;;12.60;;
3523;SDS011;1776;53.330;11.498;2022-12-18T06:36:00;33.77;;;14.10;;
3523;SDS011;1776;53.330;11.498;2022-12-18T06:38:32;41.58;;;14.23;;
3523;SDS011;1776;53.330;11.498;2022-12-18T06:40:58;34.75;;;14.32;;
3523;SDS011;1776;53.330;11.498;2022-12-18T06:43:23;28.17;;;12.10;;
3523;SDS011;1776;53.330;11.498;2022-12-18T06:45:49;29.07;;;12.70;;
3523;SDS011;1776;53.330;11.498;2022-12-18T06:48:17;37.47;;;15.57;;
3523;SDS011;1776;53.330;11.498;2022-12-18T06:50:45;38.80;;;13.07;;
3523;SDS011;1776;53.330;11.498;2022-12-18T06:53:11;26.67;;;11.70;;
3523;SDS011;1776;53.330;11.498;2022-12-18T06:55:36;27.53;;;12.87;;
3523;SDS011;1776;53.330;11.498;2022-12-18T06:58:02;34.07;;;14.73;;
3523;SDS011;1776;53.330;11.498;2022-12-18T07:00:27;29.93;;;11.70;;
3523;SDS011;1776;53.330;11.498;2022-12-18T07:02:52;31.57;;;11.80;;
3523;SDS011;1776;53.330;11.498;2022-12-18T07:05:17;38.47;;;13.80;;
3523;SDS011;1776;53.330;11.498;2022-12-18T07:07:43;42.50;;;14.80;;
3523;SDS011;1776;53.330;11.498;2022-12-18T07:10:08;28.83;;;14.63;;
3523;SDS011;1776;53.330;11.498;2022-12-18T07:12:34;35.93;;;13.37;;
3523;SDS011;1776;53.330;11.498;2022-12-18T07:14:59;26.47;;;12.50;;
3523;SDS011;1776;53.330;11.498;2022-12-18T07:17:24;38.27;;;15.13;;
3523;SDS011;1776;53.330;11.498;2022-12-18T07:19:49;35.93;;;13.30;;
3523;SDS011;1776;53.330;11.498;2022-12-18T07:22:15;32.53;;;12.30;;
3523;SDS011;1776;53.330;11.498;2022-12-18T07:24:40;34.20;;;12.43;;
3523;SDS011;1776;53.330;11.498;2022-12-18T07:27:05;42.70;;;14.77;;
3523;SDS011;1776;53.330;11.498;2022-12-18T07:29:30;35.47;;;13.90;;
3523;SDS011;1776;53.330;11.498;2022-12-18T07:31:56;32.23;;;12.37;;
3523;SDS011;1776;53.330;11.498;2022-12-18T07:34:21;36.20;;;14.70;;
3523;SDS011;1776;53.330;11.498;2022-12-18T07:36:46;36.47;;;16.27;;
3523;SDS011;1776;53.330;11.498;2022-12-18T07:39:12;36.63;;;15.37;;
3523;SDS011;1776;53.330;11.498;2022-12-18T07:41:37;32.57;;;12.20;;
3523;SDS011;1776;53.330;11.498;2022-12-18T07:44:02;42.53;;;16.37;;
3523;SDS011;1776;53.330;11.498;2022-12-18T07:46:28;44.87;;;17.77;;
3523;SDS011;1776;53.330;11.498;2022-12-18T07:48:53;33.37;;;14.60;;
3523;SDS011;1776;53.330;11.498;2022-12-18T07:51:18;41.87;;;17.57;;
3523;SDS011;1776;53.330;11.498;2022-12-18T07:53:44;42.37;;;17.27;;
3523;SDS011;1776;53.330;11.498;2022-12-18T07:56:10;36.53;;;14.57;;
3523;SDS011;1776;53.330;11.498;2022-12-18T07:58:36;33.75;;;15.95;;
3523;SDS011;1776;53.330;11.498;2022-12-18T08:03:31;40.35;;;16.38;;
3523;SDS011;1776;53.330;11.498;2022-12-18T08:06:03;45.07;;;14.70;;
3523;SDS011;1776;53.330;11.498;2022-12-18T08:08:31;36.25;;;15.77;;
3523;SDS011;1776;53.330;11.498;2022-12-18T08:10:57;43.47;;;14.10;;
3523;SDS011;1776;53.330;11.498;2022-12-18T08:13:23;40.57;;;15.27;;
3523;SDS011;1776;53.330;11.498;2022-12-18T08:15:58;40.33;;;14.27;;
3523;SDS011;1776;53.330;11.498;2022-12-18T08:18:28;35.88;;;15.48;;
3523;SDS011;1776;53.330;11.498;2022-12-18T08:20:54;44.23;;;13.30;;
3523;SDS011;1776;53.330;11.498;2022-12-18T08:23:19;37.33;;;16.65;;
3523;SDS011;1776;53.330;11.498;2022-12-18T08:25:45;44.67;;;15.00;;
3523;SDS011;1776;53.330;11.498;2022-12-18T08:28:10;34.87;;;15.43;;
3523;SDS011;1776;53.330;11.498;2022-12-18T08:30:36;47.40;;;15.80;;
3523;SDS011;1776;53.330;11.498;2022-12-18T08:33:01;37.70;;;14.50;;
3523;SDS011;1776;53.330;11.498;2022-12-18T08:35:26;35.90;;;16.03;;
3523;SDS011;1776;53.330;11.498;2022-12-18T08:37:52;37.90;;;15.10;;
3523;SDS011;1776;53.330;11.498;2022-12-18T08:40:17;36.77;;;15.93;;
3523;SDS011;1776;53.330;11.498;2022-12-18T08:42:43;40.80;;;17.10;;
3523;SDS011;1776;53.330;11.498;2022-12-18T08:45:26;43.47;;;18.23;;
3523;SDS011;1776;53.330;11.498;2022-12-18T08:47:52;50.80;;;17.77;;
3523;SDS011;1776;53.330;11.498;2022-12-18T08:50:17;45.10;;;17.70;;
3523;SDS011;1776;53.330;11.498;2022-12-18T08:52:43;42.97;;;16.80;;
3523;SDS011;1776;53.330;11.498;2022-12-18T08:55:08;48.37;;;18.43;;
3523;SDS011;1776;53.330;11.498;2022-12-18T08:57:34;40.80;;;16.27;;
3523;SDS011;1776;53.330;11.498;2022-12-18T09:00:00;44.60;;;15.70;;
3523;SDS011;1776;53.330;11.498;2022-12-18T09:02:25;51.10;;;19.07;;
3523;SDS011;1776;53.330;11.498;2022-12-18T09:04:50;32.73;;;14.70;;
3523;SDS011;1776;53.330;11.498;2022-12-18T09:07:16;42.07;;;16.00;;
3523;SDS011;1776;53.330;11.498;2022-12-18T09:09:41;44.77;;;16.33;;
3523;SDS011;1776;53.330;11.498;2022-12-18T09:12:06;41.93;;;16.77;;
3523;SDS011;1776;53.330;11.498;2022-12-18T09:14:32;49.87;;;17.93;;
3523;SDS011;1776;53.330;11.498;2022-12-18T09:16:57;42.00;;;19.67;;
3523;SDS011;1776;53.330;11.498;2022-12-18T09:19:22;49.07;;;19.57;;
3523;SDS011;1776;53.330;11.498;2022-12-18T09:21:47;49.13;;;18.17;;
3523;SDS011;1776;53.330;11.498;2022-12-18T09:24:13;48.40;;;18.97;;
3523;SDS011;1776;53.330;11.498;2022-12-18T09:26:39;49.33;;;18.20;;
3523;SDS011;1776;53.330;11.498;2022-12-18T09:29:04;45.40;;;18.13;;
3523;SDS011;1776;53.330;11.498;2022-12-18T09:31:29;44.10;;;18.37;;
3523;SDS011;1776;53.330;11.498;2022-12-18T09:33:55;38.83;;;15.30;;
3523;SDS011;1776;53.330;11.498;2022-12-18T09:36:21;41.85;;;18.92;;
3523;SDS011;1776;53.330;11.498;2022-12-18T09:38:46;46.43;;;17.43;;
3523;SDS011;1776;53.330;11.498;2022-12-18T09:41:18;41.50;;;15.20;;
3523;SDS011;1776;53.330;11.498;2022-12-18T09:43:55;36.33;;;15.07;;
3523;SDS011;1776;53.330;11.498;2022-12-18T09:46:26;42.15;;;17.67;;
3523;SDS011;1776;53.330;11.498;2022-12-18T09:48:56;43.35;;;17.92;;
3523;SDS011;1776;53.330;11.498;2022-12-18T09:51:29;40.92;;;15.65;;
3523;SDS011;1776;53.330;11.498;2022-12-18T09:54:02;38.20;;;17.35;;
3523;SDS011;1776;53.330;11.498;2022-12-18T09:56:33;40.45;;;16.50;;
3523;SDS011;1776;53.330;11.498;2022-12-18T09:59:03;53.42;;;19.65;;
3523;SDS011;1776;53.330;11.498;2022-12-18T10:01:29;41.80;;;16.25;;
3523;SDS011;1776;53.330;11.498;2022-12-18T10:03:56;46.63;;;17.00;;
3523;SDS011;1776;53.330;11.498;2022-12-18T10:06:39;43.53;;;17.57;;
3523;SDS011;1776;53.330;11.498;2022-12-18T10:20:17;43.70;;;16.55;;
3523;SDS011;1776;53.330;11.498;2022-12-18T10:25:28;52.05;;;17.50;;
3523;SDS011;1776;53.330;11.498;2022-12-18T10:28:06;44.63;;;17.25;;
3523;SDS011;1776;53.330;11.498;2022-12-18T10:30:36;57.67;;;19.20;;
3523;SDS011;1776;53.330;11.498;2022-12-18T10:33:03;49.03;;;19.70;;
3523;SDS011;1776;53.330;11.498;2022-12-18T10:35:29;42.57;;;19.07;;
3523;SDS011;1776;53.330;11.498;2022-12-18T10:40:58;44.08;;;17.98;;
3523;SDS011;1776;53.330;11.498;2022-12-18T10:43:37;51.38;;;20.73;;
3523;SDS011;1776;53.330;11.498;2022-12-18T10:46:07;56.35;;;19.60;;
3523;SDS011;1776;53.330;11.498;2022-12-18T10:48:52;55.00;;;20.85;;
3523;SDS011;1776;53.330;11.498;2022-12-18T10:51:26;39.85;;;17.40;;
3523;SDS011;1776;53.330;11.498;2022-12-18T10:54:01;45.28;;;18.85;;
3523;SDS011;1776;53.330;11.498;2022-12-18T10:56:29;57.60;;;19.25;;
3523;SDS011;1776;53.330;11.498;2022-12-18T10:59:02;53.55;;;18.83;;
3523;SDS011;1776;53.330;11.498;2022-12-18T11:01:48;50.83;;;18.17;;
3523;SDS011;1776;53.330;11.498;2022-12-18T11:04:25;52.83;;;19.25;;
3523;SDS011;1776;53.330;11.498;2022-12-18T11:07:04;55.92;;;18.08;;
3523;SDS011;1776;53.330;11.498;2022-12-18T11:09:31;49.25;;;19.38;;
3523;SDS011;1776;53.330;11.498;2022-12-18T11:11:59;48.08;;;19.75;;
3523;SDS011;1776;53.330;11.498;2022-12-18T11:14:32;48.03;;;19.60;;
3523;SDS011;1776;53.330;11.498;2022-12-18T11:16:59;45.33;;;19.98;;
3523;SDS011;1776;53.330;11.498;2022-12-18T11:21:59;49.00;;;19.90;;
3523;SDS011;1776;53.330;11.498;2022-12-18T11:24:28;40.67;;;16.67;;
3523;SDS011;1776;53.330;11.498;2022-12-18T11:26:57;44.00;;;16.58;;
3523;SDS011;1776;53.330;11.498;2022-12-18T11:29:30;50.20;;;18.98;;
3523;SDS011;1776;53.330;11.498;2022-12-18T11:34:50;35.15;;;15.80;;
3523;SDS011;1776;53.330;11.498;2022-12-18T11:37:20;46.60;;;18.65;;
3523;SDS011;1776;53.330;11.498;2022-12-18T11:39:49;47.20;;;21.50;;
3523;SDS011;1776;53.330;11.498;2022-12-18T11:42:41;46.47;;;18.92;;
3523;SDS011;1776;53.330;11.498;2022-12-18T11:47:39;37.90;;;16.23;;
3523;SDS011;1776;53.330;11.498;2022-12-18T11:50:14;46.55;;;16.80;;
3523;SDS011;1776;53.330;11.498;2022-12-18T11:52:42;56.78;;;18.88;;
3523;SDS011;1776;53.330;11.498;2022-12-18T11:55:10;43.10;;;17.80;;
3523;SDS011;1776;53.330;11.498;2022-12-18T11:57:42;40.70;;;15.27;;
3523;SDS011;1776;53.330;11.498;2022-12-18T12:00:27;49.25;;;19.67;;
3523;SDS011;1776;53.330;11.498;2022-12-18T12:02:59;40.07;;;16.80;;
3523;SDS011;1776;53.330;11.498;2022-12-18T12:05:48;42.63;;;17.45;;
3523;SDS011;1776;53.330;11.498;2022-12-18T12:14:06;46.35;;;16.08;;
3523;SDS011;1776;53.330;11.498;2022-12-18T12:17:04;45.53;;;18.38;;
3523;SDS011;1776;53.330;11.498;2022-12-18T12:30:23;51.22;;;18.30;;
3523;SDS011;1776;53.330;11.498;2022-12-18T12:33:07;46.63;;;17.73;;
3523;SDS011;1776;53.330;11.498;2022-12-18T12:36:00;43.10;;;17.98;;
3523;SDS011;1776;53.330;11.498;2022-12-18T12:38:46;42.30;;;18.25;;
3523;SDS011;1776;53.330;11.498;2022-12-18T12:41:23;36.42;;;17.27;;
3523;SDS011;1776;53.330;11.498;2022-12-18T12:44:16;39.45;;;16.92;;
3523;SDS011;1776;53.330;11.498;2022-12-18T12:46:47;43.13;;;19.23;;
3523;SDS011;1776;53.330;11.498;2022-12-18T12:49:15;43.22;;;16.77;;
3523;SDS011;1776;53.330;11.498;2022-12-18T12:51:45;40.28;;;16.00;;
3523;SDS011;1776;53.330;11.498;2022-12-18T12:54:16;40.03;;;17.17;;
3523;SDS011;1776;53.330;11.498;2022-12-18T12:56:52;42.05;;;17.67;;
3523;SDS011;1776;53.330;11.498;2022-12-18T13:05:30;43.47;;;19.70;;
3523;SDS011;1776;53.330;11.498;2022-12-18T13:08:04;41.00;;;15.73;;
3523;SDS011;1776;53.330;11.498;2022-12-18T13:10:33;44.63;;;15.73;;
3523;SDS011;1776;53.330;11.498;2022-12-18T13:15:46;32.58;;;14.90;;
3523;SDS011;1776;53.330;11.498;2022-12-18T13:18:20;41.38;;;16.13;;
3523;SDS011;1776;53.330;11.498;2022-12-18T13:34:20;39.30;;;17.33;;
3523;SDS011;1776;53.330;11.498;2022-12-18T13:36:50;43.33;;;17.25;;
3523;SDS011;1776;53.330;11.498;2022-12-18T13:41:42;39.83;;;18.37;;
3523;SDS011;1776;53.330;11.498;2022-12-18T13:46:57;37.50;;;15.75;;
3523;SDS011;1776;53.330;11.498;2022-12-18T13:49:24;38.57;;;15.93;;
3523;SDS011;1776;53.330;11.498;2022-12-18T13:51:55;37.10;;;14.18;;
3523;SDS011;1776;53.330;11.498;2022-12-18T13:54:37;30.97;;;14.13;;
3523;SDS011;1776;53.330;11.498;2022-12-18T13:57:05;34.38;;;15.60;;
3523;SDS011;1776;53.330;11.498;2022-12-18T13:59:51;33.55;;;14.77;;
3523;SDS011;1776;53.330;11.498;2022-12-18T14:02:17;28.10;;;13.83;;
3523;SDS011;1776;53.330;11.498;2022-12-18T14:04:47;40.65;;;14.52;;
3523;SDS011;1776;53.330;11.498;2022-12-18T14:07:14;28.20;;;13.82;;
3523;SDS011;1776;53.330;11.498;2022-12-18T14:09:54;40.53;;;16.17;;
3523;SDS011;1776;53.330;11.498;2022-12-18T14:12:29;28.88;;;14.32;;
3523;SDS011;1776;53.330;11.498;2022-12-18T14:17:50;27.80;;;13.85;;
3523;SDS011;1776;53.330;11.498;2022-12-18T14:20:18;32.92;;;14.95;;
3523;SDS011;1776;53.330;11.498;2022-12-18T14:22:43;30.50;;;14.60;;
3523;SDS011;1776;53.330;11.498;2022-12-18T14:25:16;34.45;;;14.90;;
3523;SDS011;1776;53.330;11.498;2022-12-18T14:27:50;35.90;;;15.27;;
3523;SDS011;1776;53.330;11.498;2022-12-18T14:32:59;26.33;;;13.65;;
3523;SDS011;1776;53.330;11.498;2022-12-18T14:35:25;30.60;;;14.30;;
3523;SDS011;1776;53.330;11.498;2022-12-18T14:37:50;29.23;;;14.37;;
3523;SDS011;1776;53.330;11.498;2022-12-18T14:40:15;33.47;;;17.10;;
3523;SDS011;1776;53.330;11.498;2022-12-18T14:42:41;34.00;;;16.10;;
3523;SDS011;1776;53.330;11.498;2022-12-18T14:47:58;31.65;;;15.40;;
3523;SDS011;1776;53.330;11.498;2022-12-18T14:50:24;36.40;;;15.98;;
3523;SDS011;1776;53.330;11.498;2022-12-18T14:52:50;29.93;;;14.43;;
3523;SDS011;1776;53.330;11.498;2022-12-18T14:55:19;29.13;;;15.33;;
3523;SDS011;1776;53.330;11.498;2022-12-18T14:57:48;33.47;;;15.15;;
3523;SDS011;1776;53.330;11.498;2022-12-18T15:00:16;32.38;;;14.73;;
3523;SDS011;1776;53.330;11.498;2022-12-18T15:02:48;45.55;;;15.48;;
3523;SDS011;1776;53.330;11.498;2022-12-18T15:07:43;36.70;;;16.17;;
3523;SDS011;1776;53.330;11.498;2022-12-18T15:10:20;31.35;;;15.18;;
3523;SDS011;1776;53.330;11.498;2022-12-18T15:18:19;29.00;;;15.88;;
3523;SDS011;1776;53.330;11.498;2022-12-18T15:20:49;37.15;;;16.50;;
3523;SDS011;1776;53.330;11.498;2022-12-18T15:23:18;38.67;;;17.05;;
3523;SDS011;1776;53.330;11.498;2022-12-18T15:26:03;32.63;;;17.75;;
3523;SDS011;1776;53.330;11.498;2022-12-18T15:28:38;36.75;;;14.52;;
3523;SDS011;1776;53.330;11.498;2022-12-18T15:31:31;32.67;;;14.68;;
3523;SDS011;1776;53.330;11.498;2022-12-18T15:34:01;42.80;;;17.58;;
3523;SDS011;1776;53.330;11.498;2022-12-18T15:36:34;30.50;;;14.82;;
3523;SDS011;1776;53.330;11.498;2022-12-18T15:39:01;32.53;;;16.40;;
3523;SDS011;1776;53.330;11.498;2022-12-18T15:41:28;28.63;;;14.60;;
3523;SDS011;1776;53.330;11.498;2022-12-18T15:43:56;40.45;;;16.02;;
3523;SDS011;1776;53.330;11.498;2022-12-18T15:46:22;33.17;;;14.93;;
3523;SDS011;1776;53.330;11.498;2022-12-18T15:48:50;38.78;;;16.40;;
3523;SDS011;1776;53.330;11.498;2022-12-18T15:51:18;32.58;;;15.88;;
3523;SDS011;1776;53.330;11.498;2022-12-18T15:53:46;37.20;;;15.75;;
3523;SDS011;1776;53.330;11.498;2022-12-18T15:56:14;37.30;;;16.85;;
3523;SDS011;1776;53.330;11.498;2022-12-18T15:58:58;33.78;;;14.43;;
3523;SDS011;1776;53.330;11.498;2022-12-18T16:01:26;32.30;;;16.50;;
3523;SDS011;1776;53.330;11.498;2022-12-18T16:03:52;33.90;;;15.90;;
3523;SDS011;1776;53.330;11.498;2022-12-18T16:06:18;33.15;;;14.88;;
3523;SDS011;1776;53.330;11.498;2022-12-18T16:08:44;38.90;;;16.57;;
3523;SDS011;1776;53.330;11.498;2022-12-18T16:11:22;39.47;;;15.67;;
3523;SDS011;1776;53.330;11.498;2022-12-18T16:14:03;45.90;;;15.13;;
3523;SDS011;1776;53.330;11.498;2022-12-18T16:16:43;30.77;;;14.55;;
3523;SDS011;1776;53.330;11.498;2022-12-18T16:19:13;28.60;;;14.98;;
3523;SDS011;1776;53.330;11.498;2022-12-18T16:21:38;33.63;;;15.93;;
3523;SDS011;1776;53.330;11.498;2022-12-18T16:24:04;35.30;;;16.60;;
3523;SDS011;1776;53.330;11.498;2022-12-18T16:26:29;30.10;;;16.10;;
3523;SDS011;1776;53.330;11.498;2022-12-18T16:28:55;33.30;;;15.30;;
3523;SDS011;1776;53.330;11.498;2022-12-18T16:31:20;40.27;;;15.70;;
3523;SDS011;1776;53.330;11.498;2022-12-18T16:33:45;34.93;;;16.27;;
3523;SDS011;1776;53.330;11.498;2022-12-18T16:36:11;35.63;;;14.43;;
3523;SDS011;1776;53.330;11.498;2022-12-18T16:38:36;35.63;;;14.97;;
3523;SDS011;1776;53.330;11.498;2022-12-18T16:41:02;30.60;;;15.17;;
3523;SDS011;1776;53.330;11.498;2022-12-18T16:44:02;32.00;;;14.07;;
3523;SDS011;1776;53.330;11.498;2022-12-18T16:46:27;34.73;;;15.53;;
3523;SDS011;1776;53.330;11.498;2022-12-18T16:48:53;36.07;;;16.60;;